Time;durP1;ratioP1;P1;durP2;ratioP2;P2;SDS_P1;SDS_P2;PMS_P1;PMS_P2;Temp;Humidity;BMP_temperature;BMP_pressure;BME280_temperature;BME280_humidity;BME280_pressure;Samples;Min_cycle;Max_cycle;Signal;HPM_P1;HPM_P2
2021/03/25 00:00:30;;;;;;;21.23;14.93;;;7.70;99.90;;;;;;5075861;28;20404;-62
2021/03/25 00:02:58;;;;;;;21.40;15.40;;;7.60;99.90;;;;;;5075843;28;20424;-62
2021/03/25 00:05:26;;;;;;;19.70;15.00;;;7.50;99.90;;;;;;5075823;28;20219;-61
2021/03/25 00:07:52;;;;;;;21.20;15.27;;;7.50;99.90;;;;;;5075517;28;20447;-62
2021/03/25 00:10:24;;;;;;;21.77;15.30;;;7.50;99.90;;;;;;5075698;28;20396;-62
2021/03/25 00:12:49;;;;;;;20.57;14.40;;;7.60;99.90;;;;;;5075347;28;20275;-63
2021/03/25 00:15:15;;;;;;;22.13;14.67;;;7.60;99.90;;;;;;5075712;28;20396;-62
2021/03/25 00:17:41;;;;;;;19.30;14.50;;;7.50;99.90;;;;;;5076368;28;20166;-62
2021/03/25 00:20:12;;;;;;;20.67;15.43;;;7.50;99.90;;;;;;5056735;28;20757;-63
2021/03/25 00:22:38;;;;;;;24.40;14.63;;;7.60;99.90;;;;;;5075090;28;20327;-65
2021/03/25 00:25:05;;;;;;;18.10;14.87;;;7.60;99.90;;;;;;5075170;28;20438;-62
2021/03/25 00:27:31;;;;;;;16.80;13.00;;;7.50;99.90;;;;;;5075087;28;20205;-63
2021/03/25 00:29:57;;;;;;;18.50;13.70;;;7.40;99.90;;;;;;5068785;28;20914;-63
2021/03/25 00:32:22;;;;;;;18.77;13.70;;;7.40;99.90;;;;;;5063256;28;20656;-63
2021/03/25 00:34:48;;;;;;;20.90;15.37;;;7.20;99.90;;;;;;5054850;28;20224;-63
2021/03/25 00:37:14;;;;;;;17.63;13.90;;;7.10;99.90;;;;;;5054708;28;20699;-63
2021/03/25 00:39:39;;;;;;;21.33;14.30;;;7.20;99.90;;;;;;5054775;28;20163;-63
2021/03/25 00:42:06;;;;;;;20.57;14.40;;;7.30;99.90;;;;;;5054636;28;21033;-63
2021/03/25 00:44:32;;;;;;;23.20;15.40;;;7.40;99.90;;;;;;5072582;28;20694;-63
2021/03/25 00:46:57;;;;;;;21.20;15.33;;;7.40;99.90;;;;;;5074870;28;20444;-62
2021/03/25 00:49:23;;;;;;;18.90;13.10;;;7.40;99.90;;;;;;5073609;28;20197;-62
2021/03/25 00:51:49;;;;;;;18.50;13.97;;;7.40;99.90;;;;;;5074530;28;20663;-62
2021/03/25 00:54:15;;;;;;;19.40;14.33;;;7.40;99.90;;;;;;5074801;28;20166;-62
2021/03/25 00:56:41;;;;;;;20.33;14.37;;;7.40;99.90;;;;;;5074358;28;20411;-62
2021/03/25 00:59:06;;;;;;;18.60;13.77;;;7.50;99.90;;;;;;5074290;28;20172;-62
2021/03/25 01:01:32;;;;;;;18.87;14.50;;;7.40;99.90;;;;;;5074287;28;20182;-62
2021/03/25 01:03:58;;;;;;;17.93;13.60;;;7.30;99.90;;;;;;5074148;28;20158;-63
2021/03/25 01:06:24;;;;;;;19.47;13.47;;;7.10;99.90;;;;;;5074136;28;20170;-62
2021/03/25 01:08:50;;;;;;;20.77;14.00;;;7.10;99.90;;;;;;5074346;28;20170;-63
2021/03/25 01:11:19;;;;;;;15.47;12.37;;;7.20;99.90;;;;;;5074408;28;20480;-63
2021/03/25 01:13:50;;;;;;;15.83;13.07;;;7.20;99.90;;;;;;5074004;28;20534;-62
2021/03/25 01:16:37;;;;;;;18.47;13.80;;;7.20;99.90;;;;;;5074277;28;20934;-63
2021/03/25 01:19:12;;;;;;;17.37;13.73;;;7.10;99.90;;;;;;5073749;28;20413;-63
2021/03/25 01:21:38;;;;;;;20.53;15.20;;;7.00;99.90;;;;;;5074576;28;20428;-63
2021/03/25 01:24:04;;;;;;;17.67;13.23;;;7.00;99.90;;;;;;5073916;28;20396;-63
2021/03/25 01:26:30;;;;;;;18.70;14.37;;;7.10;99.90;;;;;;5073819;28;20415;-62
2021/03/25 01:28:55;;;;;;;18.37;12.57;;;7.00;99.90;;;;;;5073703;28;20404;-63
2021/03/25 01:31:22;;;;;;;21.23;14.53;;;7.00;99.90;;;;;;5073602;28;20193;-63
2021/03/25 01:33:48;;;;;;;19.03;13.67;;;7.00;99.90;;;;;;5073477;28;20189;-62
2021/03/25 01:36:14;;;;;;;17.27;13.23;;;7.00;99.90;;;;;;5073621;28;20776;-61
2021/03/25 01:38:39;;;;;;;16.63;13.37;;;6.90;99.90;;;;;;5073596;28;20535;-62
2021/03/25 01:41:05;;;;;;;17.73;13.30;;;6.70;99.90;;;;;;5073566;28;20170;-63
2021/03/25 01:43:36;;;;;;;17.30;12.50;;;6.70;99.90;;;;;;5073105;28;20755;-63
2021/03/25 01:46:34;;;;;;;19.87;13.80;;;6.70;99.90;;;;;;5076093;28;20170;-62
2021/03/25 01:49:05;;;;;;;15.80;12.60;;;6.80;99.90;;;;;;5069231;28;20428;-62
2021/03/25 01:51:56;;;;;;;15.10;12.10;;;6.70;99.90;;;;;;5073449;28;20408;-62
2021/03/25 01:54:56;;;;;;;15.80;11.93;;;6.60;99.90;;;;;;5073132;28;20383;-61
2021/03/25 01:57:49;;;;;;;18.10;13.17;;;6.50;99.90;;;;;;5073920;28;20396;-62
2021/03/25 02:00:18;;;;;;;14.10;10.50;;;6.40;99.90;;;;;;5073379;28;20384;-61
2021/03/25 02:03:02;;;;;;;15.80;12.47;;;6.40;99.90;;;;;;5073143;28;20450;-62
2021/03/25 02:05:37;;;;;;;15.40;11.20;;;6.50;99.90;;;;;;5055391;28;20422;-62
2021/03/25 02:08:14;;;;;;;16.57;11.10;;;6.40;99.90;;;;;;5073338;28;20796;-62
2021/03/25 02:10:59;;;;;;;16.37;11.30;;;6.50;99.90;;;;;;5072591;28;20435;-62
2021/03/25 02:14:01;;;;;;;15.37;11.77;;;6.50;99.90;;;;;;5072997;28;20566;-62
2021/03/25 02:16:37;;;;;;;15.57;10.90;;;6.50;99.90;;;;;;5001616;28;20422;-63
2021/03/25 02:19:17;;;;;;;19.43;12.00;;;6.50;99.90;;;;;;5073365;28;20884;-63
2021/03/25 02:21:58;;;;;;;15.70;11.80;;;6.50;99.90;;;;;;5073113;28;20443;-63
2021/03/25 02:24:32;;;;;;;15.40;11.77;;;6.50;99.90;;;;;;5072958;28;20810;-62
2021/03/25 02:27:30;;;;;;;13.90;10.30;;;6.50;99.90;;;;;;5073571;28;20428;-62
2021/03/25 02:30:03;;;;;;;10.67;8.60;;;6.40;99.90;;;;;;5052900;28;20374;-62
2021/03/25 02:32:35;;;;;;;15.33;10.90;;;6.40;99.90;;;;;;5053102;28;20421;-62
2021/03/25 02:35:31;;;;;;;13.03;10.97;;;6.50;99.90;;;;;;5053417;28;20745;-63
2021/03/25 02:38:11;;;;;;;17.20;11.10;;;6.40;99.90;;;;;;5022224;28;20405;-62
2021/03/25 02:40:42;;;;;;;12.80;9.33;;;6.40;99.90;;;;;;5053169;28;20427;-63
2021/03/25 02:43:14;;;;;;;12.70;10.07;;;6.50;99.90;;;;;;5052952;28;20794;-62
2021/03/25 02:45:46;;;;;;;14.33;10.47;;;6.30;99.90;;;;;;5056938;28;20408;-62
2021/03/25 02:48:15;;;;;;;13.13;9.73;;;6.20;99.90;;;;;;5056912;28;20436;-62
2021/03/25 02:50:47;;;;;;;13.03;9.40;;;6.20;99.90;;;;;;5057312;28;20405;-62
2021/03/25 02:53:24;;;;;;;13.30;9.90;;;6.20;99.90;;;;;;5056972;28;20424;-63
2021/03/25 02:55:53;;;;;;;11.87;10.63;;;6.20;99.90;;;;;;5039193;28;20446;-63
2021/03/25 02:58:24;;;;;;;16.77;9.80;;;6.20;99.90;;;;;;5065185;28;20897;-62
2021/03/25 03:01:00;;;;;;;14.00;9.67;;;6.20;99.90;;;;;;5077099;28;20772;-63
2021/03/25 03:03:36;;;;;;;10.20;9.17;;;6.30;99.90;;;;;;5076519;28;20433;-60
2021/03/25 03:06:04;;;;;;;12.30;9.23;;;6.30;99.90;;;;;;5076632;28;20447;-61
2021/03/25 03:08:35;;;;;;;12.77;9.27;;;6.30;99.90;;;;;;5076612;28;20448;-62
2021/03/25 03:11:10;;;;;;;12.17;10.00;;;6.30;99.90;;;;;;5076764;28;20502;-62
2021/03/25 03:13:42;;;;;;;11.60;8.80;;;6.20;99.90;;;;;;5076580;28;20384;-61
2021/03/25 03:16:12;;;;;;;11.17;9.50;;;6.20;99.90;;;;;;5076426;28;20427;-62
2021/03/25 03:18:44;;;;;;;9.37;8.30;;;6.10;99.90;;;;;;5076339;28;20388;-61
2021/03/25 03:21:18;;;;;;;10.47;8.63;;;6.10;99.90;;;;;;5076229;28;20465;-62
2021/03/25 03:23:44;;;;;;;9.87;8.20;;;6.20;99.90;;;;;;5070927;28;20427;-62
2021/03/25 03:26:20;;;;;;;11.37;9.63;;;6.20;99.90;;;;;;5056563;28;20905;-62
2021/03/25 03:28:49;;;;;;;12.83;9.30;;;6.00;99.90;;;;;;5068231;28;20426;-62
2021/03/25 03:31:23;;;;;;;9.50;8.40;;;6.00;99.90;;;;;;5075038;28;20428;-62
2021/03/25 03:33:59;;;;;;;9.03;8.00;;;6.00;99.90;;;;;;5075860;28;20800;-62
2021/03/25 03:36:25;;;;;;;9.23;8.33;;;6.00;99.90;;;;;;5076050;28;20388;-63
2021/03/25 03:39:04;;;;;;;14.00;8.90;;;6.00;99.90;;;;;;5076440;28;20483;-61
2021/03/25 03:41:38;;;;;;;8.20;7.40;;;5.90;99.90;;;;;;5057644;28;21022;-62
2021/03/25 03:44:07;;;;;;;10.63;7.80;;;6.00;99.90;;;;;;5123123;22;20539;-65
2021/03/25 03:46:36;;;;;;;13.37;8.47;;;6.10;99.90;;;;;;5116246;28;20898;-65
2021/03/25 03:49:04;;;;;;;12.33;8.20;;;6.10;99.90;;;;;;5114211;28;20792;-65
2021/03/25 03:51:44;;;;;;;11.50;8.97;;;6.00;99.90;;;;;;5116314;28;20440;-65
2021/03/25 03:54:11;;;;;;;9.93;8.13;;;6.00;99.90;;;;;;5097979;28;20411;-65
2021/03/25 03:56:49;;;;;;;8.60;7.70;;;6.00;99.90;;;;;;5074169;28;20396;-65
2021/03/25 03:59:35;;;;;;;9.20;8.23;;;5.90;99.90;;;;;;5097903;28;20941;-65
2021/03/25 04:02:10;;;;;;;13.17;9.00;;;5.80;99.90;;;;;;5115696;28;20454;-65
2021/03/25 04:04:40;;;;;;;9.93;8.53;;;5.80;99.90;;;;;;5115799;28;20879;-65
2021/03/25 04:07:09;;;;;;;8.30;7.50;;;5.90;99.90;;;;;;5115845;28;20509;-65
2021/03/25 04:09:47;;;;;;;11.27;9.43;;;5.90;99.90;;;;;;5116136;28;20775;-65
2021/03/25 04:12:20;;;;;;;8.83;6.97;;;5.90;99.90;;;;;;5115728;28;20385;-65
2021/03/25 04:15:14;;;;;;;8.57;7.43;;;5.80;99.90;;;;;;5115505;28;20434;-65
2021/03/25 04:17:44;;;;;;;9.93;7.63;;;5.90;99.90;;;;;;5086139;28;20412;-65
2021/03/25 04:20:16;;;;;;;10.20;7.50;;;5.90;99.90;;;;;;5085885;28;20400;-65
2021/03/25 04:22:46;;;;;;;7.43;6.67;;;6.00;99.90;;;;;;5095446;28;20429;-65
2021/03/25 04:25:31;;;;;;;9.00;7.47;;;5.90;99.90;;;;;;5095756;28;20380;-65
2021/03/25 04:28:05;;;;;;;10.70;7.53;;;5.90;99.90;;;;;;5095028;28;20521;-65
2021/03/25 04:30:39;;;;;;;8.27;7.47;;;5.70;99.90;;;;;;5110861;28;20991;-65
2021/03/25 04:33:05;;;;;;;7.97;7.17;;;5.60;99.90;;;;;;5115828;28;20428;-64
2021/03/25 04:35:31;;;;;;;9.93;8.53;;;5.70;99.90;;;;;;5115441;28;20892;-65
2021/03/25 04:37:58;;;;;;;9.23;8.33;;;5.80;99.90;;;;;;5115351;28;20430;-65
2021/03/25 04:40:29;;;;;;;8.70;7.37;;;5.80;99.90;;;;;;5115530;28;20407;-65
2021/03/25 04:42:56;;;;;;;10.57;8.27;;;5.90;99.90;;;;;;5115287;28;20537;-65
2021/03/25 04:45:45;;;;;;;9.80;8.00;;;5.90;99.90;;;;;;5114986;28;20853;-65
2021/03/25 04:48:15;;;;;;;9.07;7.67;;;5.70;99.90;;;;;;5096319;28;20485;-65
2021/03/25 04:51:04;;;;;;;10.73;8.17;;;5.60;99.90;;;;;;5115098;28;20419;-65
2021/03/25 04:53:37;;;;;;;9.77;7.40;;;5.60;99.90;;;;;;5115386;28;20505;-65
2021/03/25 04:56:09;;;;;;;9.13;8.20;;;5.60;99.90;;;;;;5115191;28;20438;-65
2021/03/25 04:58:44;;;;;;;9.17;7.97;;;5.60;99.90;;;;;;5115100;28;20410;-65
2021/03/25 05:01:17;;;;;;;8.07;7.20;;;5.50;99.90;;;;;;5115398;28;20374;-65
2021/03/25 05:03:43;;;;;;;8.77;6.97;;;5.50;99.90;;;;;;5114506;28;20825;-65
2021/03/25 05:06:47;;;;;;;9.60;7.57;;;5.50;99.90;;;;;;5114636;28;20402;-64
2021/03/25 05:09:18;;;;;;;9.10;7.40;;;5.60;99.90;;;;;;5112256;28;20417;-64
2021/03/25 05:11:44;;;;;;;9.30;7.83;;;5.60;99.90;;;;;;5114911;28;20379;-64
2021/03/25 05:14:17;;;;;;;10.90;7.10;;;5.70;99.90;;;;;;5114793;28;20406;-64
2021/03/25 05:16:56;;;;;;;8.90;7.93;;;5.70;99.90;;;;;;5096418;28;20493;-64
2021/03/25 05:19:29;;;;;;;8.90;7.67;;;5.60;99.90;;;;;;5114063;28;20435;-65
2021/03/25 05:22:07;;;;;;;9.63;8.57;;;5.60;99.90;;;;;;5114654;28;20466;-64
2021/03/25 05:24:37;;;;;;;9.07;7.30;;;5.40;99.90;;;;;;5114391;28;20443;-64
2021/03/25 05:27:23;;;;;;;11.33;8.00;;;5.40;99.90;;;;;;5114839;28;20490;-66
2021/03/25 05:29:53;;;;;;;10.83;9.00;;;5.40;99.90;;;;;;5114799;28;20403;-66
2021/03/25 05:32:22;;;;;;;8.53;7.40;;;5.40;99.90;;;;;;5114339;28;20387;-65
2021/03/25 05:34:50;;;;;;;12.50;8.60;;;5.50;99.90;;;;;;5113871;28;20395;-65
2021/03/25 05:37:16;;;;;;;8.60;7.50;;;5.50;99.90;;;;;;5114656;28;20933;-65
2021/03/25 05:39:42;;;;;;;8.87;7.40;;;5.50;99.90;;;;;;5114439;28;20398;-65
2021/03/25 05:42:15;;;;;;;10.57;8.60;;;5.60;99.90;;;;;;5114749;28;20169;-66
2021/03/25 05:45:19;;;;;;;8.30;7.50;;;5.60;99.90;;;;;;5114541;28;20424;-65
2021/03/25 05:48:06;;;;;;;10.13;7.17;;;5.70;99.90;;;;;;5093180;28;20532;-65
2021/03/25 05:50:58;;;;;;;8.90;7.47;;;5.70;99.90;;;;;;5093769;28;20406;-65
2021/03/25 05:53:38;;;;;;;14.83;8.50;;;5.70;99.90;;;;;;5094125;28;20515;-63
2021/03/25 05:56:28;;;;;;;11.93;8.77;;;5.60;99.90;;;;;;5094644;28;20382;-63
2021/03/25 05:58:58;;;;;;;12.10;8.43;;;5.60;99.90;;;;;;5096870;28;20886;-64
2021/03/25 06:01:26;;;;;;;12.40;8.80;;;5.60;99.90;;;;;;5113571;28;20467;-63
2021/03/25 06:04:04;;;;;;;9.90;8.23;;;5.60;99.90;;;;;;5113459;28;20860;-63
2021/03/25 06:06:55;;;;;;;12.73;8.50;;;5.60;99.90;;;;;;5113960;28;20405;-63
2021/03/25 06:09:29;;;;;;;11.07;7.23;;;5.80;99.90;;;;;;5075494;28;20410;-63
2021/03/25 06:12:16;;;;;;;8.47;7.67;;;5.90;99.90;;;;;;5114391;28;20458;-62
2021/03/25 06:15:04;;;;;;;8.90;7.03;;;6.00;99.90;;;;;;5113725;28;20381;-63
2021/03/25 06:17:54;;;;;;;8.80;7.43;;;6.10;99.90;;;;;;5114157;28;20738;-63
2021/03/25 06:20:36;;;;;;;9.23;7.40;;;6.10;99.90;;;;;;5112910;28;20385;-63
2021/03/25 06:23:10;;;;;;;8.30;7.10;;;6.10;99.90;;;;;;5113690;28;20778;-63
2021/03/25 06:26:17;;;;;;;12.60;7.37;;;6.20;99.90;;;;;;5113646;28;20393;-63
2021/03/25 06:29:20;;;;;;;8.13;7.33;;;6.30;99.90;;;;;;5113834;28;20946;-63
2021/03/25 06:32:00;;;;;;;6.90;6.17;;;6.50;99.90;;;;;;5114003;28;20408;-63
2021/03/25 06:34:35;;;;;;;9.87;7.63;;;6.70;99.90;;;;;;5112961;28;20509;-63
2021/03/25 06:37:18;;;;;;;10.30;7.73;;;6.70;99.90;;;;;;5113758;28;20382;-63
2021/03/25 06:40:13;;;;;;;10.00;8.60;;;6.80;99.90;;;;;;5113447;28;20375;-63
2021/03/25 06:42:50;;;;;;;9.80;7.60;;;6.90;99.90;;;;;;5112981;28;20477;-63
2021/03/25 06:45:20;;;;;;;9.00;7.83;;;7.10;99.90;;;;;;5113402;28;20466;-63
2021/03/25 06:48:04;;;;;;;17.00;8.63;;;7.20;99.90;;;;;;5113232;28;20442;-63
2021/03/25 06:50:35;;;;;;;20.20;12.57;;;7.30;99.90;;;;;;5112388;28;20906;-62
2021/03/25 06:53:09;;;;;;;11.67;10.00;;;7.50;99.90;;;;;;5112925;28;20422;-63
2021/03/25 06:55:34;;;;;;;10.30;8.07;;;7.70;99.90;;;;;;5113267;28;20385;-63
2021/03/25 06:58:08;;;;;;;9.80;8.33;;;7.80;99.90;;;;;;5113732;28;20411;-63
2021/03/25 07:00:39;;;;;;;8.67;7.77;;;8.00;99.90;;;;;;5113711;28;20173;-63
2021/03/25 07:03:07;;;;;;;11.43;9.00;;;8.20;99.90;;;;;;5113281;28;20468;-62
2021/03/25 07:05:34;;;;;;;8.63;7.83;;;8.30;99.90;;;;;;5112609;28;20795;-63
2021/03/25 07:08:16;;;;;;;8.93;8.00;;;8.50;99.90;;;;;;5112953;28;20472;-63
2021/03/25 07:10:43;;;;;;;11.23;8.73;;;8.70;99.90;;;;;;5103123;28;20415;-64
2021/03/25 07:13:16;;;;;;;9.27;8.23;;;8.70;99.90;;;;;;5083654;28;20494;-63
2021/03/25 07:15:42;;;;;;;9.63;7.93;;;8.90;99.90;;;;;;5092401;28;20937;-63
2021/03/25 07:18:33;;;;;;;10.10;8.17;;;9.00;99.90;;;;;;5092455;28;20491;-63
2021/03/25 07:21:36;;;;;;;8.77;7.87;;;9.20;99.90;;;;;;5088306;28;20182;-64
2021/03/25 07:24:05;;;;;;;9.57;8.63;;;9.30;99.90;;;;;;5092606;28;20417;-63
2021/03/25 07:26:33;;;;;;;11.77;8.43;;;9.50;99.90;;;;;;5092491;28;20396;-63
2021/03/25 07:29:11;;;;;;;8.73;7.80;;;9.60;99.90;;;;;;5092360;28;20500;-64
2021/03/25 07:31:52;;;;;;;9.90;8.40;;;9.80;99.90;;;;;;5096194;28;20400;-63
2021/03/25 07:34:36;;;;;;;11.90;9.33;;;9.90;99.90;;;;;;5095436;28;20510;-65
2021/03/25 07:37:04;;;;;;;16.70;9.47;;;10.00;99.90;;;;;;5095950;28;20478;-64
2021/03/25 07:39:47;;;;;;;10.30;9.20;;;10.10;99.90;;;;;;5095868;28;20498;-63
2021/03/25 07:42:23;;;;;;;12.50;9.87;;;10.20;99.90;;;;;;5094205;28;20902;-64
2021/03/25 07:44:49;;;;;;;13.50;10.30;;;10.20;99.90;;;;;;5075467;28;20933;-64
2021/03/25 07:47:34;;;;;;;15.43;13.13;;;10.10;99.90;;;;;;5075427;28;20446;-64
2021/03/25 07:50:20;;;;;;;31.47;13.67;;;10.10;99.90;;;;;;5074777;28;20175;-65
2021/03/25 07:52:47;;;;;;;16.87;12.73;;;10.10;99.90;;;;;;5074910;28;20415;-65
2021/03/25 07:55:20;;;;;;;17.23;12.87;;;10.20;99.90;;;;;;5075458;28;20505;-63
2021/03/25 07:57:48;;;;;;;21.30;13.00;;;10.20;99.90;;;;;;5075551;28;20876;-64
2021/03/25 08:00:19;;;;;;;13.93;12.43;;;10.40;99.90;;;;;;5104264;28;20415;-64
2021/03/25 08:02:45;;;;;;;16.50;11.93;;;10.60;99.90;;;;;;5115832;28;20445;-64
2021/03/25 08:05:29;;;;;;;16.70;13.20;;;10.50;99.90;;;;;;5115382;28;20402;-64
2021/03/25 08:08:01;;;;;;;15.63;12.50;;;10.80;99.90;;;;;;5115977;28;20245;-65
2021/03/25 08:10:37;;;;;;;14.60;11.87;;;11.00;99.90;;;;;;5115886;28;20430;-65
2021/03/25 08:13:05;;;;;;;16.13;12.90;;;11.10;99.90;;;;;;5115670;28;20414;-65
2021/03/25 08:15:43;;;;;;;15.07;11.53;;;11.20;99.90;;;;;;5115460;28;20448;-65
2021/03/25 08:18:39;;;;;;;18.67;12.63;;;11.20;99.90;;;;;;5115433;28;20409;-64
2021/03/25 08:21:27;;;;;;;13.27;10.73;;;11.30;99.90;;;;;;5115210;28;20389;-65
2021/03/25 08:24:02;;;;;;;18.97;11.40;;;11.50;99.90;;;;;;5093675;28;20462;-65
2021/03/25 08:26:50;;;;;;;13.55;11.65;;;11.70;99.90;;;;;;5094718;28;20413;-65
2021/03/25 08:29:49;;;;;;;17.33;12.53;;;12.00;99.90;;;;;;5100983;28;20241;-64
2021/03/25 08:32:30;;;;;;;13.20;11.77;;;12.00;99.90;;;;;;5097203;28;20395;-64
2021/03/25 08:35:19;;;;;;;13.13;11.50;;;12.10;99.90;;;;;;5114918;28;20476;-65
2021/03/25 08:38:26;;;;;;;18.50;11.80;;;12.20;99.90;;;;;;5082697;28;20407;-64
2021/03/25 08:40:59;;;;;;;15.80;11.93;;;12.20;99.90;;;;;;5069290;28;20416;-64
2021/03/25 08:43:38;;;;;;;20.30;12.60;;;12.20;99.90;;;;;;5114638;28;20450;-64
2021/03/25 08:46:18;;;;;;;15.30;12.47;;;12.10;99.90;;;;;;5115410;28;20435;-65
2021/03/25 08:49:06;;;;;;;18.30;11.30;;;12.20;99.90;;;;;;5115306;28;20770;-64
2021/03/25 08:51:41;;;;;;;16.80;12.00;;;12.50;99.90;;;;;;5114770;28;20792;-64
2021/03/25 08:54:24;;;;;;;15.10;11.67;;;12.80;99.80;;;;;;5114521;28;20436;-64
2021/03/25 08:56:55;;;;;;;16.67;12.83;;;13.00;99.30;;;;;;5114608;28;20389;-64
2021/03/25 08:59:24;;;;;;;14.97;12.43;;;13.10;99.00;;;;;;5114226;28;20410;-64
2021/03/25 09:02:03;;;;;;;15.40;12.70;;;13.20;98.90;;;;;;5114799;28;20409;-64
2021/03/25 09:04:37;;;;;;;16.20;12.30;;;13.40;98.60;;;;;;5114384;28;20859;-65
2021/03/25 09:07:05;;;;;;;15.13;11.77;;;13.50;98.20;;;;;;5114675;28;20430;-64
2021/03/25 09:09:44;;;;;;;17.83;12.32;;;13.60;98.10;;;;;;5113448;28;20399;-64
2021/03/25 09:12:19;;;;;;;15.93;12.57;;;14.00;97.80;;;;;;5114545;28;20558;-64
2021/03/25 09:14:45;;;;;;;17.13;11.97;;;13.90;97.60;;;;;;5114502;28;20440;-64
2021/03/25 09:17:16;;;;;;;18.27;12.50;;;14.00;97.50;;;;;;5113525;28;20454;-63
2021/03/25 09:19:52;;;;;;;17.93;12.30;;;14.60;97.10;;;;;;5114256;28;20167;-64
2021/03/25 09:22:38;;;;;;;15.67;11.73;;;14.50;96.80;;;;;;5114534;28;20746;-64
2021/03/25 09:25:19;;;;;;;15.47;11.90;;;14.40;97.20;;;;;;5114205;28;20441;-63
2021/03/25 09:27:56;;;;;;;20.17;12.97;;;14.40;97.00;;;;;;5114104;28;20455;-64
2021/03/25 09:30:33;;;;;;;13.23;11.23;;;14.50;96.70;;;;;;5113236;28;20398;-64
2021/03/25 09:33:37;;;;;;;14.80;11.13;;;14.80;96.60;;;;;;5114107;28;20833;-64
2021/03/25 09:36:31;;;;;;;19.47;12.20;;;14.80;96.30;;;;;;5113718;28;20394;-64
2021/03/25 09:38:59;;;;;;;13.80;11.20;;;14.70;96.30;;;;;;5113801;28;20416;-63
2021/03/25 09:41:25;;;;;;;17.73;12.27;;;14.80;96.40;;;;;;5114069;28;20406;-63
2021/03/25 09:44:09;;;;;;;14.97;10.97;;;14.80;96.00;;;;;;5125934;22;21026;-62
2021/03/25 09:46:58;;;;;;;12.47;11.00;;;14.90;96.20;;;;;;5085235;28;20166;-62
2021/03/25 09:49:31;;;;;;;13.33;10.93;;;15.00;96.10;;;;;;5096068;28;20394;-62
2021/03/25 09:52:09;;;;;;;14.20;10.43;;;14.90;95.60;;;;;;5097530;28;20397;-62
2021/03/25 09:54:44;;;;;;;12.73;10.37;;;14.80;96.20;;;;;;5073742;28;20421;-63
2021/03/25 09:57:29;;;;;;;15.67;11.00;;;15.00;96.00;;;;;;5055635;28;20809;-63
2021/03/25 10:00:22;;;;;;;16.80;10.73;;;15.00;95.90;;;;;;5073286;28;20418;-63
2021/03/25 10:02:48;;;;;;;15.97;11.17;;;15.10;95.50;;;;;;5073285;28;20409;-62
2021/03/25 10:05:28;;;;;;;17.10;10.57;;;15.20;95.60;;;;;;5073393;28;20907;-63
2021/03/25 10:07:58;;;;;;;13.93;10.97;;;15.40;95.30;;;;;;5073633;28;20463;-63
2021/03/25 10:10:35;;;;;;;19.67;11.10;;;15.40;95.00;;;;;;5073048;28;20413;-63
2021/03/25 10:13:00;;;;;;;14.87;10.17;;;15.40;95.40;;;;;;5075270;28;20418;-63
2021/03/25 10:15:29;;;;;;;12.37;9.70;;;15.50;94.90;;;;;;5093742;28;20401;-60
2021/03/25 10:17:56;;;;;;;11.60;10.40;;;15.50;94.60;;;;;;5093150;28;20581;-61
2021/03/25 10:20:52;;;;;;;10.60;9.00;;;15.70;94.10;;;;;;5092968;28;20447;-63
2021/03/25 10:23:27;;;;;;;10.07;7.77;;;16.00;92.90;;;;;;5093434;28;20188;-62
2021/03/25 10:26:10;;;;;;;11.80;9.70;;;16.10;91.90;;;;;;5093771;28;20379;-61
2021/03/25 10:28:42;;;;;;;11.80;7.83;;;16.00;92.80;;;;;;5093549;28;20520;-62
2021/03/25 10:31:15;;;;;;;10.23;7.43;;;16.00;91.40;;;;;;5093510;28;20802;-63
2021/03/25 10:33:41;;;;;;;11.80;8.40;;;16.10;91.30;;;;;;5093374;28;20421;-61
2021/03/25 10:36:14;;;;;;;11.93;8.90;;;16.40;90.80;;;;;;5093523;28;20414;-62
2021/03/25 10:39:01;;;;;;;11.80;8.60;;;16.40;90.70;;;;;;5093406;28;20385;-61
2021/03/25 10:41:38;;;;;;;17.17;9.53;;;16.50;91.20;;;;;;5093282;28;20390;-62
2021/03/25 10:44:23;;;;;;;12.80;8.80;;;16.50;90.70;;;;;;5092530;28;20503;-63
2021/03/25 10:46:49;;;;;;;9.57;8.50;;;16.60;90.00;;;;;;5093229;28;20384;-62
2021/03/25 10:49:21;;;;;;;11.60;8.40;;;16.30;89.00;;;;;;5093220;28;20474;-64
2021/03/25 10:51:49;;;;;;;10.10;7.33;;;16.10;90.10;;;;;;5092878;28;20394;-64
2021/03/25 10:54:37;;;;;;;9.03;7.43;;;16.50;88.70;;;;;;5092729;28;20462;-63
2021/03/25 10:57:22;;;;;;;13.00;8.13;;;16.90;87.00;;;;;;5092901;28;20400;-63
2021/03/25 10:59:52;;;;;;;10.57;6.93;;;17.40;85.70;;;;;;5092838;28;20751;-64
2021/03/25 11:02:23;;;;;;;8.50;7.07;;;17.50;82.10;;;;;;5093055;28;20403;-63
2021/03/25 11:05:15;;;;;;;8.03;6.93;;;17.70;82.50;;;;;;5094249;28;20423;-63
2021/03/25 11:08:02;;;;;;;11.80;8.00;;;18.00;80.80;;;;;;5096453;28;20661;-63
2021/03/25 11:10:33;;;;;;;9.43;7.33;;;18.40;81.10;;;;;;5096493;28;20407;-63
2021/03/25 11:13:26;;;;;;;8.17;6.73;;;19.00;79.80;;;;;;5096494;28;20490;-65
2021/03/25 11:16:05;;;;;;;10.67;8.07;;;19.20;77.50;;;;;;5095995;28;20440;-63
2021/03/25 11:18:48;;;;;;;9.80;7.53;;;19.80;77.60;;;;;;5096886;28;20475;-64
2021/03/25 11:21:27;;;;;;;11.20;6.87;;;21.20;71.30;;;;;;5095846;28;21124;-65
2021/03/25 11:24:04;;;;;;;10.50;7.90;;;21.60;66.70;;;;;;5094130;28;20950;-65
2021/03/25 11:26:30;;;;;;;10.30;6.57;;;22.50;63.10;;;;;;5096593;28;20745;-64
2021/03/25 11:28:57;;;;;;;7.20;5.50;;;23.00;60.90;;;;;;5095015;28;20457;-65
2021/03/25 11:31:25;;;;;;;7.30;5.20;;;23.70;56.10;;;;;;5094541;28;20169;-64
2021/03/25 11:33:52;;;;;;;6.80;4.70;;;24.60;51.80;;;;;;5096575;28;20834;-63
2021/03/25 11:36:38;;;;;;;8.30;5.53;;;23.80;52.80;;;;;;5095930;28;20510;-63
2021/03/25 11:39:16;;;;;;;10.60;5.93;;;24.30;50.00;;;;;;5096364;28;20395;-63
2021/03/25 11:41:43;;;;;;;9.07;6.23;;;24.30;51.20;;;;;;5096589;28;20891;-64
2021/03/25 11:44:09;;;;;;;9.17;5.87;;;24.80;50.30;;;;;;5095682;28;20439;-64
2021/03/25 11:46:40;;;;;;;8.60;6.17;;;25.60;48.90;;;;;;5096284;28;20399;-64
2021/03/25 11:49:08;;;;;;;8.70;6.10;;;26.30;48.10;;;;;;5096113;28;20953;-63
2021/03/25 11:51:39;;;;;;;7.83;6.20;;;25.60;47.90;;;;;;5096198;28;20391;-63
2021/03/25 11:54:34;;;;;;;7.40;6.33;;;24.70;49.90;;;;;;5084476;28;20476;-63
2021/03/25 11:57:35;;;;;;;8.57;6.23;;;25.60;47.70;;;;;;5090793;28;20449;-63
2021/03/25 12:00:06;;;;;;;9.33;5.10;;;25.80;47.40;;;;;;5075523;28;20411;-64
2021/03/25 12:02:33;;;;;;;8.83;5.87;;;25.80;47.20;;;;;;5075745;28;20807;-64
2021/03/25 12:05:37;;;;;;;9.83;5.97;;;26.40;47.50;;;;;;5057433;28;20430;-64
2021/03/25 12:08:13;;;;;;;8.70;6.43;;;27.10;45.30;;;;;;5075650;28;20442;-64
2021/03/25 12:10:40;;;;;;;11.40;6.67;;;28.40;44.20;;;;;;5075873;28;20767;-65
2021/03/25 12:13:07;;;;;;;8.27;6.67;;;28.70;43.50;;;;;;5078580;28;20952;-64
2021/03/25 12:15:32;;;;;;;9.70;7.70;;;27.10;45.20;;;;;;5095412;28;20457;-64
2021/03/25 12:18:01;;;;;;;8.80;6.90;;;26.60;45.60;;;;;;5094543;28;20761;-64
2021/03/25 12:20:30;;;;;;;11.23;8.00;;;26.40;46.30;;;;;;5095429;28;20173;-64
2021/03/25 12:23:21;;;;;;;8.83;7.37;;;27.10;45.30;;;;;;5095270;28;20481;-64
2021/03/25 12:25:54;;;;;;;10.67;8.50;;;26.30;45.60;;;;;;5095513;28;20391;-64
2021/03/25 12:28:20;;;;;;;10.77;8.40;;;25.40;47.70;;;;;;5095394;28;20435;-64
2021/03/25 12:30:46;;;;;;;14.13;9.10;;;24.90;47.70;;;;;;5094815;28;20391;-64
2021/03/25 12:33:23;;;;;;;10.43;7.93;;;25.20;48.20;;;;;;5095184;28;20426;-64
2021/03/25 12:35:49;;;;;;;11.03;7.90;;;24.00;49.30;;;;;;5095205;28;20440;-63
2021/03/25 12:38:15;;;;;;;9.50;7.67;;;24.10;49.80;;;;;;5087758;28;20482;-63
2021/03/25 12:40:41;;;;;;;9.97;7.77;;;24.40;50.60;;;;;;5075152;28;20408;-63
2021/03/25 12:43:07;;;;;;;12.43;8.73;;;25.60;49.70;;;;;;5077564;28;20224;-64
2021/03/25 12:45:40;;;;;;;10.53;8.40;;;26.50;48.00;;;;;;5094605;28;20150;-64
2021/03/25 12:48:07;;;;;;;11.00;7.87;;;26.20;47.60;;;;;;5077489;28;20542;-62
2021/03/25 12:50:33;;;;;;;11.20;8.10;;;27.10;46.50;;;;;;5095725;28;20435;-63
2021/03/25 12:52:59;;;;;;;11.33;9.10;;;26.50;47.10;;;;;;5095756;28;20466;-64
2021/03/25 12:55:26;;;;;;;13.57;9.60;;;25.90;49.20;;;;;;5095746;28;20528;-63
2021/03/25 12:57:53;;;;;;;10.60;9.10;;;25.10;48.50;;;;;;5095621;28;20445;-63
2021/03/25 13:00:22;;;;;;;12.60;9.57;;;24.60;49.90;;;;;;5094339;28;20838;-63
2021/03/25 13:02:47;;;;;;;14.30;8.17;;;23.10;51.80;;;;;;5094302;28;20476;-63
2021/03/25 13:05:13;;;;;;;10.30;8.50;;;22.10;53.90;;;;;;5094438;28;20835;-63
2021/03/25 13:07:38;;;;;;;12.83;9.00;;;21.80;54.80;;;;;;5094611;28;20220;-63
2021/03/25 13:10:05;;;;;;;10.37;8.47;;;21.70;56.00;;;;;;5094380;28;20169;-64
2021/03/25 13:12:31;;;;;;;10.90;8.17;;;21.70;56.80;;;;;;5094615;28;20673;-64
2021/03/25 13:14:57;;;;;;;10.05;8.30;;;21.60;56.80;;;;;;5093280;28;20401;-63
2021/03/25 13:17:22;;;;;;;14.07;9.37;;;21.70;56.40;;;;;;5094349;28;20165;-63
2021/03/25 13:19:48;;;;;;;12.37;8.77;;;21.20;56.30;;;;;;5076016;28;20173;-63